TimeCST,TemperatureF,Dew PointF,Humidity,Sea Level PressureIn,VisibilityMPH,Wind Direction,Wind SpeedMPH,Gust SpeedMPH,PrecipitationIn,Events,Conditions,WindDirDegrees,DateUTC
12:15 AM,23.7,19.9,85,29.74,10.0,West,18.4,33.4,N/A,,Overcast,280,2012-12-21 06:15:00
12:35 AM,23.0,19.2,85,29.76,7.0,West,17.3,35.7,N/A,,Overcast,270,2012-12-21 06:35:00
12:55 AM,22.6,18.7,85,29.77,10.0,West,20.7,28.8,N/A,,Overcast,270,2012-12-21 06:55:00
1:15 AM,22.1,18.1,85,29.78,10.0,West,23.0,32.2,N/A,,Overcast,280,2012-12-21 07:15:00
1:35 AM,21.7,17.8,85,29.80,10.0,West,18.4,29.9,N/A,,Overcast,280,2012-12-21 07:35:00
1:55 AM,21.6,17.4,84,29.81,10.0,West,19.6,29.9,N/A,,Overcast,270,2012-12-21 07:55:00
2:15 AM,21.2,17.1,84,29.83,10.0,West,17.3,28.8,N/A,,Overcast,280,2012-12-21 08:15:00
2:35 AM,20.3,16.3,85,29.84,10.0,West,15.0,25.3,N/A,,Overcast,270,2012-12-21 08:35:00
2:55 AM,19.8,15.6,84,29.85,10.0,West,17.3,27.6,N/A,,Overcast,280,2012-12-21 08:55:00
3:15 AM,19.2,14.9,83,29.86,10.0,West,15.0,29.9,N/A,,Overcast,270,2012-12-21 09:15:00
3:35 AM,19.0,14.7,83,29.88,10.0,West,12.7,23.0,N/A,,Overcast,270,2012-12-21 09:35:00
3:55 AM,18.5,14.4,84,29.89,10.0,West,17.3,24.2,N/A,,Overcast,270,2012-12-21 09:55:00
4:15 AM,18.5,14.0,83,29.90,10.0,West,10.4,21.9,N/A,,Overcast,270,2012-12-21 10:15:00
4:35 AM,18.0,13.3,82,29.91,10.0,West,10.4,23.0,N/A,,Overcast,270,2012-12-21 10:35:00
4:55 AM,17.6,13.1,83,29.92,10.0,West,11.5,17.3,N/A,,Overcast,280,2012-12-21 10:55:00
5:15 AM,17.6,12.2,79,29.93,10.0,West,11.5,25.3,N/A,,Overcast,270,2012-12-21 11:15:00
5:35 AM,17.2,12.6,82,29.95,10.0,WNW,12.7,20.7,N/A,,Overcast,300,2012-12-21 11:35:00
5:55 AM,17.6,12.2,79,29.96,10.0,WNW,12.7,26.5,N/A,,Overcast,290,2012-12-21 11:55:00
6:15 AM,16.7,12.0,82,29.97,10.0,WNW,10.4,19.6,N/A,,Overcast,290,2012-12-21 12:15:00
6:35 AM,16.5,11.8,82,29.98,10.0,WNW,9.2,18.4,N/A,,Mostly Cloudy,290,2012-12-21 12:35:00
6:55 AM,16.3,11.3,81,29.99,10.0,West,16.1,21.9,N/A,,Mostly Cloudy,280,2012-12-21 12:55:00
7:15 AM,16.5,11.7,81,30.00,10.0,WNW,17.3,20.7,N/A,,Scattered Clouds,290,2012-12-21 13:15:00
7:35 AM,16.5,11.3,80,30.01,10.0,West,13.8,20.7,N/A,,Clear,280,2012-12-21 13:35:00
7:55 AM,16.7,11.3,79,30.02,10.0,West,10.4,24.2,N/A,,Clear,280,2012-12-21 13:55:00
8:15 AM,17.1,11.3,78,30.04,10.0,West,15.0,27.6,N/A,,Unknown,280,2012-12-21 14:15:00
8:35 AM,17.6,11.5,77,30.04,10.0,WNW,13.8,-,N/A,,Unknown,290,2012-12-21 14:35:00
8:55 AM,18.0,11.7,76,30.04,10.0,West,12.7,-,N/A,,Clear,280,2012-12-21 14:55:00
9:15 AM,18.5,12.0,76,30.05,10.0,West,12.7,19.6,N/A,,Unknown,280,2012-12-21 15:15:00
9:35 AM,19.4,12.7,75,30.06,10.0,West,11.5,17.3,N/A,,Unknown,280,2012-12-21 15:35:00
9:55 AM,20.3,12.9,73,30.07,10.0,West,15.0,19.6,N/A,,Unknown,280,2012-12-21 15:55:00
10:15 AM,21.0,12.7,70,30.08,10.0,West,18.4,25.3,N/A,,Unknown,280,2012-12-21 16:15:00
10:35 AM,21.2,12.7,70,30.08,10.0,WNW,16.1,24.2,N/A,,Unknown,290,2012-12-21 16:35:00
10:55 AM,21.7,12.9,69,30.08,10.0,WNW,19.6,25.3,N/A,,Unknown,290,2012-12-21 16:55:00
11:15 AM,21.6,12.4,68,30.09,10.0,WNW,18.4,29.9,N/A,,Clear,290,2012-12-21 17:15:00
11:35 AM,22.1,12.9,68,30.09,10.0,WNW,19.6,25.3,N/A,,Clear,290,2012-12-21 17:35:00
11:55 AM,22.8,13.5,67,30.09,10.0,West,20.7,25.3,N/A,,Unknown,280,2012-12-21 17:55:00
12:15 PM,23.0,13.5,67,30.09,10.0,West,20.7,27.6,N/A,,Unknown,280,2012-12-21 18:15:00
12:35 PM,23.0,13.6,67,30.09,10.0,WNW,18.4,27.6,N/A,,Unknown,290,2012-12-21 18:35:00
12:55 PM,23.5,14.0,67,30.09,10.0,WNW,18.4,28.8,N/A,,Unknown,290,2012-12-21 18:55:00
1:15 PM,23.5,14.0,67,30.09,10.0,WNW,17.3,25.3,N/A,,Unknown,290,2012-12-21 19:15:00
1:35 PM,23.7,13.8,66,30.10,10.0,WNW,15.0,27.6,N/A,,Unknown,290,2012-12-21 19:35:00
1:55 PM,23.7,13.8,66,30.11,10.0,WNW,15.0,23.0,N/A,,Unknown,290,2012-12-21 19:55:00
2:15 PM,23.9,14.0,66,30.11,10.0,WNW,19.6,24.2,N/A,,Unknown,290,2012-12-21 20:15:00
2:35 PM,23.7,13.6,65,30.12,10.0,WNW,15.0,23.0,N/A,,Unknown,290,2012-12-21 20:35:00
2:55 PM,23.9,13.8,65,30.13,10.0,WNW,18.4,23.0,N/A,,Unknown,290,2012-12-21 20:55:00
3:15 PM,24.1,14.0,65,30.13,10.0,WNW,13.8,20.7,N/A,,Clear,300,2012-12-21 21:15:00
3:35 PM,23.5,13.8,66,30.14,10.0,WNW,16.1,20.7,N/A,,Clear,290,2012-12-21 21:35:00
3:55 PM,23.0,13.8,68,30.15,10.0,WNW,15.0,21.9,N/A,,Unknown,290,2012-12-21 21:55:00
4:15 PM,22.8,13.5,67,30.16,10.0,WNW,12.7,18.4,N/A,,Clear,290,2012-12-21 22:15:00
4:35 PM,21.9,13.3,69,30.16,10.0,WNW,11.5,21.9,N/A,,Clear,290,2012-12-21 22:35:00
4:55 PM,21.6,13.5,71,30.18,10.0,WNW,10.4,-,N/A,,Clear,300,2012-12-21 22:55:00
5:15 PM,21.2,12.7,70,30.18,10.0,WNW,9.2,-,N/A,,Clear,300,2012-12-21 23:15:00
5:35 PM,20.7,12.6,71,30.20,10.0,WNW,9.2,-,N/A,,Unknown,300,2012-12-21 23:35:00
5:55 PM,19.9,12.6,73,30.20,10.0,WNW,12.7,16.1,N/A,,Clear,290,2012-12-21 23:55:00
6:15 PM,19.6,12.2,73,30.21,10.0,WNW,11.5,16.1,N/A,,Clear,300,2012-12-22 00:15:00
6:35 PM,19.2,12.0,74,30.21,10.0,WNW,12.7,18.4,N/A,,Scattered Clouds,290,2012-12-22 00:35:00
6:55 PM,18.7,11.7,74,30.22,10.0,WNW,11.5,16.1,N/A,,Clear,290,2012-12-22 00:55:00
7:15 PM,18.5,11.5,74,30.23,10.0,WNW,9.2,-,N/A,,Clear,290,2012-12-22 01:15:00
7:35 PM,18.5,11.7,75,30.23,10.0,WNW,8.1,16.1,N/A,,Scattered Clouds,290,2012-12-22 01:35:00
7:55 PM,18.1,11.3,75,30.23,10.0,WNW,6.9,-,N/A,,Scattered Clouds,290,2012-12-22 01:55:00
8:15 PM,17.6,11.1,76,30.23,10.0,West,8.1,-,N/A,,Clear,280,2012-12-22 02:15:00
8:35 PM,17.2,11.3,78,30.23,10.0,WNW,6.9,-,N/A,,Clear,290,2012-12-22 02:35:00
8:55 PM,17.2,11.1,77,30.24,10.0,West,6.9,-,N/A,,Clear,280,2012-12-22 02:55:00
9:15 PM,17.2,11.1,77,30.24,10.0,West,6.9,-,N/A,,Clear,270,2012-12-22 03:15:00
9:35 PM,17.2,10.9,76,30.24,10.0,WNW,9.2,-,N/A,,Scattered Clouds,300,2012-12-22 03:35:00
9:55 PM,17.1,10.8,76,30.24,10.0,West,8.1,-,N/A,,Clear,270,2012-12-22 03:55:00
10:15 PM,17.1,10.9,77,30.24,10.0,WNW,10.4,-,N/A,,Clear,290,2012-12-22 04:15:00
10:35 PM,16.9,10.4,76,30.23,10.0,WNW,5.8,-,N/A,,Unknown,300,2012-12-22 04:35:00
10:55 PM,16.7,10.2,76,30.23,10.0,West,5.8,-,N/A,,Unknown,280,2012-12-22 04:55:00
11:15 PM,16.7,10.4,76,30.24,10.0,West,5.8,-,N/A,,Unknown,280,2012-12-22 05:15:00
11:35 PM,16.5,10.6,77,30.24,10.0,West,5.8,-,N/A,,Clear,270,2012-12-22 05:35:00
11:55 PM,16.5,9.9,75,30.24,10.0,Calm,Calm,-,N/A,,Unknown,0,2012-12-22 05:55:00